Time;durP1;ratioP1;P1;durP2;ratioP2;P2;SDS_P1;SDS_P2;PMS_P1;PMS_P2;Temp;Humidity;BMP_temperature;BMP_pressure;BME280_temperature;BME280_humidity;BME280_pressure;Samples;Min_cycle;Max_cycle;Signal;HPM_P1;HPM_P2
2023/06/22 00:02:31;;;;;;;4.70;4.18;;;;;;;21.19;87.69;101693.47;20939594;28;20040;-70
2023/06/22 00:12:33;;;;;;;4.80;4.30;;;;;;;21.17;87.87;101707.13;20950846;28;20054;-70
2023/06/22 00:22:38;;;;;;;5.55;5.05;;;;;;;21.14;87.85;101708.28;20949848;28;20045;-70
2023/06/22 00:32:40;;;;;;;4.28;3.70;;;;;;;21.13;87.82;101700.28;20957497;28;20040;-70
2023/06/22 00:42:41;;;;;;;5.25;4.72;;;;;;;21.10;87.79;101703.25;20968889;28;20049;-70
2023/06/22 00:52:45;;;;;;;5.57;4.90;;;;;;;21.10;87.97;101692.44;20933454;28;20611;-70
2023/06/22 01:02:51;;;;;;;5.33;4.83;;;;;;;21.09;87.77;101696.13;20969597;28;20041;-70
2023/06/22 01:13:02;;;;;;;5.75;4.85;;;;;;;21.06;87.87;101675.63;20991075;28;20520;-70
2023/06/22 01:23:34;;;;;;;5.30;4.80;;;;;;;21.05;87.83;101678.47;20981303;28;20063;-70
2023/06/22 01:33:38;;;;;;;4.90;4.40;;;;;;;21.03;87.52;101664.22;20913678;28;20137;-70
2023/06/22 01:43:40;;;;;;;4.68;4.28;;;;;;;21.00;87.28;101671.63;20892844;28;20111;-70
2023/06/22 01:53:42;;;;;;;5.18;4.22;;;;;;;20.99;87.04;101653.66;20894002;28;20053;-70
2023/06/22 02:03:51;;;;;;;5.00;4.50;;;;;;;20.97;86.85;101671.91;20911260;28;20049;-70
2023/06/22 02:13:55;;;;;;;3.88;3.47;;;;;;;20.96;86.53;101659.34;20892084;28;20041;-70
2023/06/22 02:23:58;;;;;;;3.43;3.13;;;;;;;20.95;86.25;101664.91;20930104;28;20055;-70
2023/06/22 02:34:00;;;;;;;3.22;2.92;;;;;;;20.92;86.39;101652.50;21075186;28;20067;-70
2023/06/22 02:44:01;;;;;;;3.17;2.78;;;;;;;20.93;86.25;101661.47;21074691;28;20101;-70
2023/06/22 02:54:03;;;;;;;3.30;3.00;;;;;;;20.91;86.10;101656.22;21071950;28;20060;-70
2023/06/22 03:04:09;;;;;;;3.92;3.53;;;;;;;20.90;86.00;101664.47;21035679;28;20044;-70
2023/06/22 03:14:11;;;;;;;3.67;3.10;;;;;;;20.87;85.55;101660.19;21052315;28;20048;-70
2023/06/22 03:24:12;;;;;;;2.50;2.30;;;;;;;20.88;85.22;101664.59;21059195;28;20097;-70
2023/06/22 03:34:14;;;;;;;2.25;2.05;;;;;;;20.86;85.09;101661.19;20988237;28;20049;-70
2023/06/22 03:44:15;;;;;;;2.45;2.25;;;;;;;20.85;85.02;101663.03;20955535;28;20049;-70
2023/06/22 03:54:17;;;;;;;2.00;1.80;;;;;;;20.84;84.88;101661.31;20940336;28;20040;-70
2023/06/22 04:04:19;;;;;;;1.90;1.80;;;;;;;20.84;85.22;101660.47;20935176;28;20045;-70
2023/06/22 04:14:21;;;;;;;2.03;1.83;;;;;;;20.80;85.64;101659.88;20983020;28;20136;-70
2023/06/22 04:24:22;;;;;;;1.30;1.20;;;;;;;20.79;85.71;101651.91;21029976;28;20052;-70
2023/06/22 04:34:27;;;;;;;11.77;10.75;;;;;;;20.46;85.25;101659.28;21066516;28;20043;-71
2023/06/22 04:44:29;;;;;;;11.90;10.80;;;;;;;20.40;85.47;101674.19;21066129;28;20083;-70
2023/06/22 04:54:34;;;;;;;14.18;12.77;;;;;;;20.35;86.47;101666.50;21066736;28;20083;-71
2023/06/22 05:04:38;;;;;;;16.55;14.80;;;;;;;20.33;88.50;101656.78;21064710;28;20564;-70
2023/06/22 05:14:41;;;;;;;17.92;16.13;;;;;;;20.33;90.47;101654.97;21064966;28;20044;-71
2023/06/22 05:24:43;;;;;;;20.65;18.55;;;;;;;20.33;92.87;101652.25;21053708;28;20143;-70
2023/06/22 05:34:45;;;;;;;20.13;18.13;;;;;;;20.34;95.00;101659.38;21079720;28;20519;-70
2023/06/22 05:44:47;;;;;;;19.35;16.80;;;;;;;20.37;96.09;101653.69;21078455;28;20091;-70
2023/06/22 05:54:48;;;;;;;20.27;17.52;;;;;;;20.38;98.00;101650.00;21077992;28;20649;-70
2023/06/22 06:04:52;;;;;;;19.98;17.45;;;;;;;20.42;99.10;101648.75;21004279;28;20253;-70
2023/06/22 06:14:56;;;;;;;18.10;14.83;;;;;;;20.45;97.93;101649.44;20978207;28;20041;-72
2023/06/22 06:24:58;;;;;;;16.50;14.57;;;;;;;20.49;97.81;101656.31;20933228;28;20076;-72
2023/06/22 06:34:59;;;;;;;15.70;13.93;;;;;;;20.54;97.73;101654.03;20877311;28;20051;-71
2023/06/22 06:45:01;;;;;;;13.55;11.85;;;;;;;20.58;97.25;101659.06;20924706;28;20140;-71
2023/06/22 06:55:07;;;;;;;10.20;9.10;;;;;;;20.65;96.86;101672.03;20930697;28;20072;-71
2023/06/22 07:05:10;;;;;;;8.27;7.38;;;;;;;20.71;96.81;101661.50;20923941;28;20073;-72
2023/06/22 07:15:12;;;;;;;9.85;7.13;;;;;;;20.77;96.89;101660.13;20934082;28;20045;-71
2023/06/22 07:25:14;;;;;;;9.95;5.35;;;;;;;20.83;97.31;101656.06;20927213;28;20420;-70
2023/06/22 07:35:17;;;;;;;17.90;5.60;;;;;;;20.91;97.32;101644.50;20909401;28;20412;-71
2023/06/22 07:45:19;;;;;;;20.60;5.95;;;;;;;20.94;96.70;101623.47;20951556;28;20065;-70
2023/06/22 07:55:20;;;;;;;18.77;5.82;;;;;;;20.97;95.84;101623.16;20979542;28;20127;-71
2023/06/22 08:05:22;;;;;;;24.25;5.60;;;;;;;20.98;95.83;101619.47;20958522;28;20075;-70
2023/06/22 08:15:25;;;;;;;19.35;5.20;;;;;;;21.07;96.13;101612.38;20964067;28;20052;-70
2023/06/22 08:25:27;;;;;;;13.98;3.92;;;;;;;21.18;95.84;101597.81;20939339;28;21777;-70
2023/06/22 08:35:30;;;;;;;10.80;3.58;;;;;;;21.28;95.31;101592.44;20936734;28;20071;-71
2023/06/22 08:45:32;;;;;;;10.32;3.58;;;;;;;21.37;94.80;101590.72;20976557;28;20044;-71
2023/06/22 08:55:34;;;;;;;6.82;2.70;;;;;;;21.43;94.60;101590.16;20944815;28;20048;-70
2023/06/22 09:05:37;;;;;;;5.18;2.53;;;;;;;21.49;93.96;101573.31;20958641;28;20052;-71
2023/06/22 09:15:39;;;;;;;5.15;2.40;;;;;;;21.55;93.39;101556.47;20947589;28;20052;-70
2023/06/22 09:25:40;;;;;;;3.88;2.10;;;;;;;21.58;92.82;101553.47;20961082;28;20049;-70
2023/06/22 09:35:42;;;;;;;3.40;1.90;;;;;;;21.62;92.12;101545.06;20952648;28;20045;-71
2023/06/22 09:45:44;;;;;;;4.30;2.15;;;;;;;21.63;91.71;101536.81;20952234;28;20049;-70
2023/06/22 09:55:46;;;;;;;6.30;2.30;;;;;;;21.57;91.07;101515.72;20953924;28;20044;-71
2023/06/22 10:05:47;;;;;;;4.45;2.35;;;;;;;21.65;90.94;101528.53;20935401;28;20678;-71
2023/06/22 10:15:51;;;;;;;3.83;2.10;;;;;;;21.58;90.47;101522.84;20941157;28;20044;-70
2023/06/22 10:25:53;;;;;;;2.40;2.03;;;;;;;21.64;90.50;101516.88;20938967;28;20048;-70
2023/06/22 10:35:55;;;;;;;3.92;2.25;;;;;;;21.65;89.99;101512.28;20929871;28;20472;-70
2023/06/22 10:45:56;;;;;;;5.22;2.50;;;;;;;21.68;90.50;101495.75;20939146;28;20055;-71
2023/06/22 10:55:58;;;;;;;4.78;2.72;;;;;;;21.81;89.55;101490.84;20940710;28;20045;-70
2023/06/22 11:06:00;;;;;;;2.65;2.00;;;;;;;21.88;89.40;101486.56;20926802;28;20115;-70
2023/06/22 11:16:02;;;;;;;5.25;2.40;;;;;;;21.94;88.59;101484.25;20943646;28;20452;-69
2023/06/22 11:26:04;;;;;;;3.30;2.40;;;;;;;21.97;88.98;101495.66;20906455;28;20080;-70
2023/06/22 11:36:05;;;;;;;4.93;2.40;;;;;;;21.91;89.03;101479.13;20952096;28;20058;-70
2023/06/22 11:46:07;;;;;;;3.95;2.47;;;;;;;21.92;89.38;101472.69;20915017;28;20047;-72
2023/06/22 11:56:09;;;;;;;4.93;2.95;;;;;;;21.92;91.16;101488.97;20912281;28;20055;-66
2023/06/22 12:06:11;;;;;;;4.25;2.67;;;;;;;21.87;92.08;101463.16;20931880;28;20136;-66
2023/06/22 12:16:13;;;;;;;4.30;3.00;;;;;;;21.93;92.50;101439.16;20942090;28;20072;-66
2023/06/22 12:26:14;;;;;;;5.93;3.70;;;;;;;21.95;92.11;101418.19;20926118;28;20446;-66
2023/06/22 12:36:16;;;;;;;4.85;3.08;;;;;;;21.98;91.95;101417.88;20909656;28;20121;-66
2023/06/22 12:46:18;;;;;;;3.78;2.38;;;;;;;22.00;91.63;101405.03;20976419;28;20063;-67
2023/06/22 12:56:19;;;;;;;4.53;2.83;;;;;;;21.97;91.64;101397.19;20929031;28;20053;-68
2023/06/22 13:06:21;;;;;;;4.50;3.53;;;;;;;21.97;91.74;101408.03;20951968;28;20052;-66
2023/06/22 13:16:23;;;;;;;4.25;3.13;;;;;;;21.94;91.23;101392.94;20948215;28;20052;-67
2023/06/22 13:26:24;;;;;;;3.28;2.60;;;;;;;21.91;91.03;101392.38;20928238;28;20127;-67
2023/06/22 13:36:26;;;;;;;4.22;3.00;;;;;;;21.90;90.45;101379.84;20962387;28;20063;-66
2023/06/22 13:46:28;;;;;;;3.45;2.83;;;;;;;21.85;89.63;101372.16;20928872;28;20080;-66
2023/06/22 13:56:30;;;;;;;2.97;2.45;;;;;;;21.82;89.36;101373.31;20954042;28;20045;-67
2023/06/22 14:06:31;;;;;;;3.17;2.88;;;;;;;21.80;89.12;101356.34;20958239;28;20054;-67
2023/06/22 14:16:33;;;;;;;2.85;2.50;;;;;;;21.79;88.92;101351.94;21005959;28;20052;-66
2023/06/22 14:26:34;;;;;;;2.47;2.20;;;;;;;21.77;89.01;101336.81;20927075;28;20053;-66
2023/06/22 14:36:36;;;;;;;6.60;2.90;;;;;;;21.76;90.31;101322.44;20966358;28;20148;-68
2023/06/22 14:46:38;;;;;;;4.63;3.00;;;;;;;21.79;91.08;101318.53;20946207;28;20049;-67
2023/06/22 14:56:40;;;;;;;6.90;2.97;;;;;;;21.82;91.95;101305.56;20932897;28;20040;-67
2023/06/22 15:06:44;;;;;;;3.85;3.13;;;;;;;21.80;92.42;101294.03;20910361;28;20041;-67
2023/06/22 15:16:45;;;;;;;6.10;3.60;;;;;;;21.85;93.20;101286.28;20936314;28;20044;-73
2023/06/22 15:26:47;;;;;;;4.32;3.05;;;;;;;21.85;94.05;101280.84;20935890;28;20055;-71
2023/06/22 15:36:49;;;;;;;3.83;2.58;;;;;;;21.85;94.29;101282.69;20908664;28;20498;-75
2023/06/22 15:46:52;;;;;;;5.43;3.00;;;;;;;21.87;94.88;101250.88;20928413;28;20047;-73
2023/06/22 15:56:54;;;;;;;3.30;3.00;;;;;;;21.87;95.95;101227.34;20921565;28;20133;-81
2023/06/22 16:06:56;;;;;;;9.10;6.93;;;;;;;21.90;97.74;101211.78;20923173;28;20072;-77
2023/06/22 16:16:57;;;;;;;5.47;4.82;;;;;;;21.95;100.00;101217.59;20932216;28;20504;-75
2023/06/22 16:26:59;;;;;;;3.85;3.55;;;;;;;21.99;100.00;101217.13;20904649;28;20425;-73
2023/06/22 16:37:01;;;;;;;3.50;3.20;;;;;;;22.01;100.00;101217.81;20923736;28;20427;-74
2023/06/22 16:47:04;;;;;;;3.50;3.13;;;;;;;22.01;100.00;101214.25;20927509;28;20037;-71
2023/06/22 16:57:06;;;;;;;3.87;3.23;;;;;;;21.98;100.00;101230.81;20902116;28;20057;-77
2023/06/22 17:07:10;;;;;;;3.97;3.67;;;;;;;21.95;99.99;101225.72;20886223;28;20753;-70
2023/06/22 17:17:13;;;;;;;;;;;;;;;21.91;98.95;101205.34;20917223;28;20418;-71
2023/06/22 17:27:26;;;;;;;2.40;2.20;;;;;;;21.85;98.26;101234.78;20907968;28;19925;-72
2023/06/22 17:37:32;;;;;;;2.75;2.28;;;;;;;21.80;96.96;101247.94;20917001;28;20068;-71
2023/06/22 17:47:34;;;;;;;3.47;2.20;;;;;;;21.76;96.33;101261.94;20951042;28;20136;-71
2023/06/22 17:57:37;;;;;;;2.40;2.10;;;;;;;21.71;95.58;101290.34;20963808;28;20052;-71
2023/06/22 18:07:39;;;;;;;2.75;1.90;;;;;;;21.69;95.04;101308.63;20984351;28;20056;-70
2023/06/22 18:17:41;;;;;;;2.00;1.80;;;;;;;21.61;94.46;101310.34;20939458;28;20066;-71
2023/06/22 18:27:43;;;;;;;2.75;1.88;;;;;;;21.63;93.89;101292.94;21002488;28;20775;-71
2023/06/22 18:37:46;;;;;;;1.95;1.75;;;;;;;21.64;93.79;101275.72;20983723;28;20048;-71
2023/06/22 18:47:57;;;;;;;2.58;1.90;;;;;;;21.61;93.13;101277.84;20977907;28;20444;-71
2023/06/22 18:58:12;;;;;;;2.08;1.70;;;;;;;21.58;92.70;101276.31;20930244;28;20048;-70
2023/06/22 19:08:14;;;;;;;2.58;1.60;;;;;;;21.56;92.70;101273.72;20910760;28;20088;-72
2023/06/22 19:18:21;;;;;;;1.90;1.67;;;;;;;21.55;91.86;101280.16;20976235;28;20451;-70
2023/06/22 19:28:24;;;;;;;1.58;1.20;;;;;;;21.47;91.65;101265.69;20952719;28;20044;-73
2023/06/22 19:38:27;;;;;;;2.97;1.53;;;;;;;21.51;91.10;101256.25;20986621;28;20086;-73
2023/06/22 19:48:30;;;;;;;1.65;1.52;;;;;;;21.48;90.49;101268.22;20985865;28;20056;-73
2023/06/22 19:58:33;;;;;;;1.40;1.30;;;;;;;21.47;90.10;101284.66;20984251;28;20044;-73
2023/06/22 20:08:48;;;;;;;1.38;1.20;;;;;;;21.43;89.63;101303.03;21007044;28;20062;-73
2023/06/22 20:19:11;;;;;;;1.50;1.40;;;;;;;21.41;89.50;101315.88;20961311;28;20052;-73
2023/06/22 20:29:33;;;;;;;1.50;1.40;;;;;;;21.37;89.78;101298.22;20944704;28;20132;-73
2023/06/22 20:39:39;;;;;;;1.70;1.30;;;;;;;21.35;89.59;101300.22;20967030;28;20053;-73
2023/06/22 20:49:40;;;;;;;1.70;1.60;;;;;;;21.32;89.48;101290.53;20957000;28;20056;-73
2023/06/22 20:59:42;;;;;;;2.08;1.65;;;;;;;21.24;89.30;101261.53;20974668;28;20055;-73
2023/06/22 21:09:44;;;;;;;3.10;1.85;;;;;;;21.26;89.29;101274.88;20958247;28;20053;-73
2023/06/22 21:19:52;;;;;;;2.25;2.03;;;;;;;21.23;89.58;101297.72;20960865;28;20131;-73
2023/06/22 21:29:54;;;;;;;2.58;1.90;;;;;;;21.23;89.85;101307.69;20975922;28;20059;-73
2023/06/22 21:39:59;;;;;;;2.80;1.95;;;;;;;21.21;89.97;101321.38;20978311;28;20122;-73
2023/06/22 21:50:00;;;;;;;2.13;1.77;;;;;;;21.19;89.85;101320.66;20970863;28;20072;-73
2023/06/22 22:00:05;;;;;;;2.55;1.88;;;;;;;21.19;89.86;101314.41;20986414;28;20124;-73
2023/06/22 22:10:09;;;;;;;2.85;1.90;;;;;;;21.16;90.14;101312.81;20894824;28;20420;-73
2023/06/22 22:20:12;;;;;;;2.15;1.73;;;;;;;21.15;89.87;101336.34;20959106;28;20451;-73
2023/06/22 22:30:14;;;;;;;2.47;2.20;;;;;;;21.14;90.09;101336.50;20969866;28;20117;-73
2023/06/22 22:40:16;;;;;;;3.55;2.00;;;;;;;21.09;90.14;101328.84;20976426;28;20452;-73
2023/06/22 22:50:17;;;;;;;1.95;1.75;;;;;;;21.13;90.17;101353.72;20970174;28;20558;-73
2023/06/22 23:00:19;;;;;;;1.70;1.50;;;;;;;21.12;90.01;101352.03;20970031;28;20397;-73
2023/06/22 23:10:21;;;;;;;1.85;1.45;;;;;;;21.12;90.00;101349.31;20949377;28;20067;-73
2023/06/22 23:20:22;;;;;;;1.33;1.23;;;;;;;21.10;90.04;101354.03;20965455;28;20072;-73
2023/06/22 23:30:26;;;;;;;2.10;1.70;;;;;;;21.11;89.86;101361.16;20954800;28;20045;-73
2023/06/22 23:40:27;;;;;;;2.25;1.80;;;;;;;21.09;90.16;101395.63;20955860;28;20044;-73
2023/06/22 23:50:29;;;;;;;2.70;2.00;;;;;;;21.07;90.32;101401.22;20939816;28;20044;-73
